Time,TemperatureF,DewpointF,PressureIn,WindDirection,WindDirectionDegrees,WindSpeedMPH,WindSpeedGustMPH,Humidity,HourlyPrecipIn,Conditions,Clouds,dailyrainin,SoftwareType,DateUTC
2013-01-27 00:01:00,28.4,23.3,30.61,East,90,0.0,1.1,81,0.00,,,0.00,WUHU216HW,2013-01-27 05:01:00,
2013-01-27 00:06:00,28.4,23.3,30.62,East,90,0.0,1.1,81,0.00,,,0.00,WUHU216HW,2013-01-27 05:06:00,
2013-01-27 00:11:00,28.4,23.3,30.63,WSW,248,2.5,2.5,81,0.00,,,0.00,WUHU216HW,2013-01-27 05:11:00,
2013-01-27 00:16:00,28.4,23.3,30.63,West,270,1.6,2.5,81,0.00,,,0.00,WUHU216HW,2013-01-27 05:16:00,
2013-01-27 00:21:00,28.6,23.5,30.63,West,270,0.1,1.8,81,0.00,,,0.00,WUHU216HW,2013-01-27 05:21:00,
2013-01-27 00:30:00,28.6,23.5,30.63,ENE,64,0.2,0.7,81,0.00,,,0.00,WUHU216HW,2013-01-27 05:30:00,
2013-01-27 00:35:00,28.6,23.8,30.63,ENE,68,0.4,0.7,82,0.00,,,0.00,WUHU216HW,2013-01-27 05:35:00,
2013-01-27 00:40:00,28.6,23.5,30.63,ENE,68,0.3,0.7,81,0.00,,,0.00,WUHU216HW,2013-01-27 05:40:00,
2013-01-27 00:45:00,28.6,23.5,30.63,ENE,68,0.0,0.7,81,0.00,,,0.00,WUHU216HW,2013-01-27 05:45:00,
2013-01-27 00:50:00,28.8,23.7,30.62,WNW,293,0.4,0.4,81,0.00,,,0.00,WUHU216HW,2013-01-27 05:50:00,
2013-01-27 00:55:00,28.8,23.7,30.62,West,270,0.4,0.9,81,0.00,,,0.00,WUHU216HW,2013-01-27 05:55:00,
2013-01-27 01:00:00,29.0,23.9,30.62,West,270,0.0,0.9,81,0.00,,,0.00,WUHU216HW,2013-01-27 06:00:00,
2013-01-27 01:05:00,29.0,23.9,30.62,WNW,293,0.2,0.4,81,0.00,,,0.00,WUHU216HW,2013-01-27 06:05:00,
2013-01-27 01:10:00,28.8,23.7,30.62,WNW,293,0.0,0.4,81,0.00,,,0.00,WUHU216HW,2013-01-27 06:10:00,
2013-01-27 01:15:00,29.0,23.9,30.63,WNW,293,0.0,0.0,81,0.00,,,0.00,WUHU216HW,2013-01-27 06:15:00,
2013-01-27 01:20:00,29.0,23.9,30.63,WNW,293,0.0,0.0,81,0.00,,,0.00,WUHU216HW,2013-01-27 06:20:00,
2013-01-27 01:25:00,29.0,23.9,30.63,WNW,293,0.0,0.0,81,0.00,,,0.00,WUHU216HW,2013-01-27 06:25:00,
2013-01-27 01:30:00,29.0,23.9,30.63,North,0,2.0,2.5,81,0.00,,,0.00,WUHU216HW,2013-01-27 06:30:00,
2013-01-27 01:35:00,28.8,23.9,30.63,NNE,23,1.8,2.5,82,0.00,,,0.00,WUHU216HW,2013-01-27 06:35:00,
2013-01-27 01:40:00,28.8,23.9,30.63,NE,45,1.3,2.0,82,0.00,,,0.00,WUHU216HW,2013-01-27 06:40:00,
2013-01-27 01:45:00,28.6,23.8,30.64,NNE,23,1.6,1.8,82,0.00,,,0.00,WUHU216HW,2013-01-27 06:45:00,
2013-01-27 01:50:00,28.6,23.8,30.64,NNE,23,1.0,1.8,82,0.00,,,0.00,WUHU216HW,2013-01-27 06:50:00,
2013-01-27 01:55:00,28.6,23.8,30.64,NE,45,2.1,2.5,82,0.00,,,0.00,WUHU216HW,2013-01-27 06:55:00,
2013-01-27 02:00:00,28.6,23.8,30.64,ENE,64,0.9,2.5,82,0.00,,,0.00,WUHU216HW,2013-01-27 07:00:00,
2013-01-27 02:05:00,28.6,23.8,30.64,East,90,0.4,2.0,82,0.00,,,0.00,WUHU216HW,2013-01-27 07:05:00,
2013-01-27 02:13:00,28.6,23.8,30.65,East,82,0.3,1.1,82,0.00,,,0.00,WUHU216HW,2013-01-27 07:13:00,
2013-01-27 02:18:00,28.8,23.9,30.65,East,90,0.4,0.7,82,0.00,,,0.00,WUHU216HW,2013-01-27 07:18:00,
2013-01-27 02:23:00,28.8,23.9,30.65,East,90,0.0,0.7,82,0.00,,,0.00,WUHU216HW,2013-01-27 07:23:00,
2013-01-27 02:28:00,29.0,24.1,30.65,East,90,0.0,0.7,82,0.00,,,0.00,WUHU216HW,2013-01-27 07:28:00,
2013-01-27 02:33:00,29.2,24.3,30.65,East,90,0.0,0.0,82,0.00,,,0.00,WUHU216HW,2013-01-27 07:33:00,
2013-01-27 02:38:00,29.2,24.3,30.66,WNW,293,0.3,0.4,82,0.00,,,0.00,WUHU216HW,2013-01-27 07:38:00,
2013-01-27 02:43:00,29.2,24.3,30.66,WNW,293,0.0,0.4,82,0.00,,,0.00,WUHU216HW,2013-01-27 07:43:00,
2013-01-27 02:48:00,29.2,24.3,30.66,WNW,293,0.0,0.0,82,0.00,,,0.00,WUHU216HW,2013-01-27 07:48:00,
2013-01-27 02:53:00,29.3,24.5,30.66,WNW,293,0.0,0.0,82,0.00,,,0.00,WUHU216HW,2013-01-27 07:53:00,
2013-01-27 02:58:00,29.3,24.5,30.66,WNW,293,0.0,0.0,82,0.00,,,0.00,WUHU216HW,2013-01-27 07:58:00,
2013-01-27 03:03:00,29.3,24.2,30.66,WNW,293,0.0,0.0,81,0.00,,,0.00,WUHU216HW,2013-01-27 08:03:00,
2013-01-27 03:08:00,29.3,24.2,30.66,NW,315,0.0,0.0,81,0.00,,,0.00,WUHU216HW,2013-01-27 08:08:00,
2013-01-27 03:13:00,29.3,24.2,30.66,NW,315,0.0,0.0,81,0.00,,,0.00,WUHU216HW,2013-01-27 08:13:00,
2013-01-27 03:18:00,29.5,24.4,30.66,NW,315,0.0,0.0,81,0.00,,,0.00,WUHU216HW,2013-01-27 08:18:00,
2013-01-27 03:23:00,29.5,24.4,30.66,NW,315,0.0,0.0,81,0.00,,,0.00,WUHU216HW,2013-01-27 08:23:00,
2013-01-27 03:28:00,29.5,24.4,30.65,NW,315,0.4,0.4,81,0.00,,,0.00,WUHU216HW,2013-01-27 08:28:00,
2013-01-27 03:33:00,29.3,24.2,30.66,NNW,338,1.1,1.3,81,0.00,,,0.00,WUHU216HW,2013-01-27 08:33:00,
2013-01-27 03:38:00,29.3,24.2,30.66,NNW,338,1.1,1.6,81,0.00,,,0.00,WUHU216HW,2013-01-27 08:38:00,
2013-01-27 03:43:00,29.3,24.2,30.66,NNW,343,0.9,1.6,81,0.00,,,0.00,WUHU216HW,2013-01-27 08:43:00,
2013-01-27 03:48:00,29.3,24.2,30.66,North,0,1.6,1.8,81,0.00,,,0.00,WUHU216HW,2013-01-27 08:48:00,
2013-01-27 03:53:00,29.2,24.0,30.66,NE,45,1.4,3.6,81,0.00,,,0.00,WUHU216HW,2013-01-27 08:53:00,
2013-01-27 03:58:00,28.8,23.7,30.66,ENE,65,1.0,3.6,81,0.00,,,0.00,WUHU216HW,2013-01-27 08:58:00,
2013-01-27 04:03:00,28.6,23.8,30.66,ENE,59,0.5,1.3,82,0.00,,,0.00,WUHU216HW,2013-01-27 09:03:00,
2013-01-27 04:08:00,28.4,23.6,30.66,NE,45,0.0,0.9,82,0.00,,,0.00,WUHU216HW,2013-01-27 09:08:00,
2013-01-27 04:13:00,28.4,23.6,30.66,ENE,68,1.1,1.3,82,0.00,,,0.00,WUHU216HW,2013-01-27 09:13:00,
2013-01-27 04:18:00,28.4,23.6,30.65,ENE,68,0.5,1.8,82,0.00,,,0.00,WUHU216HW,2013-01-27 09:18:00,
2013-01-27 04:23:00,28.3,23.4,30.65,ENE,68,0.4,1.8,82,0.00,,,0.00,WUHU216HW,2013-01-27 09:23:00,
2013-01-27 04:28:00,28.1,23.6,30.66,ENE,68,0.9,1.1,83,0.00,,,0.00,WUHU216HW,2013-01-27 09:28:00,
2013-01-27 04:33:00,27.9,23.4,30.65,ENE,68,0.9,1.8,83,0.00,,,0.00,WUHU216HW,2013-01-27 09:33:00,
2013-01-27 04:38:00,27.7,23.2,30.65,ENE,68,0.5,1.8,83,0.00,,,0.00,WUHU216HW,2013-01-27 09:38:00,
2013-01-27 04:43:00,27.7,23.2,30.65,ENE,68,1.1,1.1,83,0.00,,,0.00,WUHU216HW,2013-01-27 09:43:00,
2013-01-27 04:48:00,27.5,23.1,30.65,ENE,68,0.4,1.1,83,0.00,,,0.00,WUHU216HW,2013-01-27 09:48:00,
2013-01-27 04:53:00,27.4,22.9,30.65,ENE,68,0.0,1.1,83,0.00,,,0.00,WUHU216HW,2013-01-27 09:53:00,
2013-01-27 04:58:00,27.2,22.7,30.65,NE,52,0.8,1.1,83,0.00,,,0.00,WUHU216HW,2013-01-27 09:58:00,
2013-01-27 05:03:00,27.0,22.5,30.65,NE,45,0.0,1.1,83,0.00,,,0.00,WUHU216HW,2013-01-27 10:03:00,
2013-01-27 05:08:00,27.0,22.5,30.66,North,0,0.0,0.4,83,0.00,,,0.00,WUHU216HW,2013-01-27 10:08:00,
2013-01-27 05:13:00,26.8,22.3,30.66,North,0,0.8,1.1,83,0.00,,,0.00,WUHU216HW,2013-01-27 10:13:00,
2013-01-27 05:18:00,26.8,22.3,30.66,North,0,0.1,1.1,83,0.00,,,0.00,WUHU216HW,2013-01-27 10:18:00,
2013-01-27 05:23:00,26.8,22.3,30.66,NNE,20,2.1,2.2,83,0.00,,,0.00,WUHU216HW,2013-01-27 10:23:00,
2013-01-27 05:28:00,26.8,22.3,30.66,NNE,23,0.8,2.2,83,0.00,,,0.00,WUHU216HW,2013-01-27 10:28:00,
2013-01-27 05:33:00,26.8,22.3,30.66,NNE,23,0.6,2.0,83,0.00,,,0.00,WUHU216HW,2013-01-27 10:33:00,
2013-01-27 05:38:00,26.6,22.2,30.67,NNW,338,0.0,1.1,83,0.00,,,0.00,WUHU216HW,2013-01-27 10:38:00,
2013-01-27 05:43:00,26.6,22.4,30.68,NW,315,1.3,1.8,84,0.00,,,0.00,WUHU216HW,2013-01-27 10:43:00,
2013-01-27 05:48:00,26.5,22.0,30.68,NW,315,0.3,1.8,83,0.00,,,0.00,WUHU216HW,2013-01-27 10:48:00,
2013-01-27 05:53:00,26.3,21.8,30.68,NW,315,0.4,1.1,83,0.00,,,0.00,WUHU216HW,2013-01-27 10:53:00,
2013-01-27 05:58:00,26.3,21.8,30.68,NW,315,0.4,0.4,83,0.00,,,0.00,WUHU216HW,2013-01-27 10:58:00,
2013-01-27 06:03:00,26.1,21.3,30.69,WSW,248,0.4,0.4,82,0.00,,,0.00,WUHU216HW,2013-01-27 11:03:00,
2013-01-27 06:08:00,25.9,21.2,30.69,NW,304,0.8,1.1,82,0.00,,,0.00,WUHU216HW,2013-01-27 11:08:00,
2013-01-27 06:13:00,25.7,21.0,30.69,SE,135,0.4,1.1,82,0.00,,,0.00,WUHU216HW,2013-01-27 11:13:00,
2013-01-27 06:18:00,25.6,20.8,30.70,SSE,158,0.0,0.4,82,0.00,,,0.00,WUHU216HW,2013-01-27 11:18:00,
2013-01-27 06:23:00,25.6,20.8,30.70,SW,225,0.0,0.4,82,0.00,,,0.00,WUHU216HW,2013-01-27 11:23:00,
2013-01-27 06:28:00,25.4,20.7,30.70,SW,225,0.0,0.2,82,0.00,,,0.00,WUHU216HW,2013-01-27 11:28:00,
2013-01-27 06:33:00,25.2,20.5,30.70,SW,225,0.0,0.2,82,0.00,,,0.00,WUHU216HW,2013-01-27 11:33:00,
2013-01-27 06:38:00,25.2,20.5,30.70,SW,225,0.0,0.0,82,0.00,,,0.00,WUHU216HW,2013-01-27 11:38:00,
2013-01-27 06:43:00,24.8,20.2,30.71,SW,225,0.0,0.0,82,0.00,,,0.00,WUHU216HW,2013-01-27 11:43:00,
2013-01-27 06:48:00,24.8,20.2,30.71,WNW,293,0.0,0.0,82,0.00,,,0.00,WUHU216HW,2013-01-27 11:48:00,
2013-01-27 06:53:00,24.8,20.2,30.71,WNW,293,0.7,1.1,82,0.00,,,0.00,WUHU216HW,2013-01-27 11:53:00,
2013-01-27 06:58:00,24.8,20.2,30.71,WNW,293,0.0,1.1,82,0.00,,,0.00,WUHU216HW,2013-01-27 11:58:00,
2013-01-27 07:03:00,24.7,20.0,30.72,WNW,293,0.0,0.4,82,0.00,,,0.00,WUHU216HW,2013-01-27 12:03:00,
2013-01-27 07:08:00,24.7,20.0,30.72,WNW,293,0.0,0.0,82,0.00,,,0.00,WUHU216HW,2013-01-27 12:08:00,
2013-01-27 07:13:00,24.3,19.6,30.72,NW,315,0.7,0.7,82,0.00,,,0.00,WUHU216HW,2013-01-27 12:13:00,
2013-01-27 07:18:00,24.1,19.4,30.72,NNW,338,0.7,0.7,82,0.00,,,0.00,WUHU216HW,2013-01-27 12:18:00,
2013-01-27 07:23:00,23.8,19.1,30.72,NNW,338,0.7,0.9,82,0.00,,,0.00,WUHU216HW,2013-01-27 12:23:00,
2013-01-27 07:28:00,23.6,18.9,30.73,North,0,1.8,2.0,82,0.00,,,0.00,WUHU216HW,2013-01-27 12:28:00,
2013-01-27 07:33:00,23.4,18.7,30.73,North,0,0.0,2.0,82,0.00,,,0.00,WUHU216HW,2013-01-27 12:33:00,
2013-01-27 07:38:00,23.4,18.7,30.73,North,0,0.0,1.8,82,0.00,,,0.00,WUHU216HW,2013-01-27 12:38:00,
2013-01-27 07:43:00,23.8,19.1,30.74,NNW,338,0.0,0.0,82,0.00,,,0.00,WUHU216HW,2013-01-27 12:43:00,
2013-01-27 07:48:00,23.9,19.5,30.74,WSW,248,1.1,1.1,83,0.00,,,0.00,WUHU216HW,2013-01-27 12:48:00,
2013-01-27 07:53:00,24.1,19.7,30.74,West,270,1.1,1.8,83,0.00,,,0.00,WUHU216HW,2013-01-27 12:53:00,
2013-01-27 07:58:00,24.3,19.9,30.74,WSW,248,1.3,2.5,83,0.00,,,0.00,WUHU216HW,2013-01-27 12:58:00,
2013-01-27 08:03:00,24.7,20.3,30.74,WSW,248,0.5,2.5,83,0.00,,,0.00,WUHU216HW,2013-01-27 13:03:00,
2013-01-27 08:08:00,24.8,20.4,30.74,WSW,248,0.0,1.3,83,0.00,,,0.00,WUHU216HW,2013-01-27 13:08:00,
2013-01-27 08:13:00,25.2,20.8,30.75,WSW,248,1.1,1.1,83,0.00,,,0.00,WUHU216HW,2013-01-27 13:13:00,
2013-01-27 08:18:00,25.6,21.1,30.76,WSW,248,1.3,1.3,83,0.00,,,0.00,WUHU216HW,2013-01-27 13:18:00,
2013-01-27 08:23:00,25.7,21.2,30.76,SW,225,1.1,1.3,83,0.00,,,0.00,WUHU216HW,2013-01-27 13:23:00,
2013-01-27 08:28:00,25.9,21.4,30.77,SW,225,0.3,1.3,83,0.00,,,0.00,WUHU216HW,2013-01-27 13:28:00,
2013-01-27 08:33:00,26.3,21.8,30.76,SW,225,0.0,1.3,83,0.00,,,0.00,WUHU216HW,2013-01-27 13:33:00,
2013-01-27 08:38:00,26.6,22.2,30.76,ESE,113,0.0,0.0,83,0.00,,,0.00,WUHU216HW,2013-01-27 13:38:00,
2013-01-27 08:43:00,27.0,22.5,30.77,ESE,113,0.0,0.0,83,0.00,,,0.00,WUHU216HW,2013-01-27 13:43:00,
2013-01-27 08:48:00,27.2,22.7,30.77,ESE,113,0.1,0.2,83,0.00,,,0.00,WUHU216HW,2013-01-27 13:48:00,
2013-01-27 08:53:00,27.7,23.5,30.77,ESE,113,0.0,0.2,84,0.00,,,0.00,WUHU216HW,2013-01-27 13:53:00,
2013-01-27 08:58:00,28.4,24.5,30.77,ESE,113,0.4,0.4,85,0.00,,,0.00,WUHU216HW,2013-01-27 13:58:00,
2013-01-27 09:03:00,28.4,24.5,30.77,East,90,1.3,1.3,85,0.00,,,0.00,WUHU216HW,2013-01-27 14:03:00,
2013-01-27 09:08:00,29.2,25.2,30.77,East,90,2.5,2.5,85,0.00,,,0.00,WUHU216HW,2013-01-27 14:08:00,
2013-01-27 09:13:00,29.7,25.7,30.76,East,83,2.2,3.4,85,0.00,,,0.00,WUHU216HW,2013-01-27 14:13:00,
2013-01-27 09:18:00,29.9,25.4,30.77,NE,45,2.7,3.4,83,0.00,,,0.00,WUHU216HW,2013-01-27 14:18:00,
2013-01-27 09:23:00,30.6,26.1,30.77,ENE,68,3.8,3.8,83,0.00,,,0.00,WUHU216HW,2013-01-27 14:23:00,
2013-01-27 09:28:00,31.3,26.5,30.76,ENE,68,4.7,5.4,82,0.00,,,0.00,WUHU216HW,2013-01-27 14:28:00,
2013-01-27 09:33:00,31.9,25.8,30.77,NE,56,5.8,7.2,78,0.00,,,0.00,WUHU216HW,2013-01-27 14:33:00,
2013-01-27 09:38:00,32.2,26.2,30.77,ENE,68,4.7,8.9,78,0.00,,,0.00,WUHU216HW,2013-01-27 14:38:00,
2013-01-27 09:43:00,32.4,24.0,30.78,ENE,68,5.6,8.9,71,0.00,,,0.00,WUHU216HW,2013-01-27 14:43:00,
2013-01-27 09:48:00,32.4,23.8,30.77,East,90,6.5,7.8,70,0.00,,,0.00,WUHU216HW,2013-01-27 14:48:00,
2013-01-27 09:53:00,32.6,23.5,30.78,ENE,73,5.3,8.3,69,0.00,,,0.00,WUHU216HW,2013-01-27 14:53:00,
2013-01-27 09:58:00,32.8,24.0,30.78,ENE,73,5.1,8.7,70,0.00,,,0.00,WUHU216HW,2013-01-27 14:58:00,
2013-01-27 10:03:00,32.9,23.9,30.78,ENE,70,6.7,8.7,69,0.00,,,0.00,WUHU216HW,2013-01-27 15:03:00,
2013-01-27 10:08:00,32.9,23.5,30.78,NE,45,8.5,9.2,68,0.00,,,0.00,WUHU216HW,2013-01-27 15:08:00,
2013-01-27 10:13:00,33.1,23.7,30.78,NE,45,8.9,9.8,68,0.00,,,0.00,WUHU216HW,2013-01-27 15:13:00,
2013-01-27 10:18:00,33.3,23.5,30.79,ENE,68,6.3,9.8,67,0.00,,,0.00,WUHU216HW,2013-01-27 15:18:00,
2013-01-27 10:23:00,33.5,23.6,30.79,ENE,70,3.3,8.9,67,0.00,,,0.00,WUHU216HW,2013-01-27 15:23:00,
2013-01-27 10:28:00,33.7,23.4,30.79,NE,45,7.6,7.6,66,0.00,,,0.00,WUHU216HW,2013-01-27 15:28:00,
2013-01-27 10:33:00,33.8,23.9,30.79,East,82,3.0,7.6,67,0.00,,,0.00,WUHU216HW,2013-01-27 15:33:00,
2013-01-27 10:38:00,34.2,24.7,30.79,NNE,19,1.8,7.6,68,0.00,,,0.00,WUHU216HW,2013-01-27 15:38:00,
2013-01-27 10:43:00,34.4,24.1,30.79,ENE,68,2.7,4.0,66,0.00,,,0.00,WUHU216HW,2013-01-27 15:43:00,
2013-01-27 10:48:00,34.6,24.7,30.79,NE,45,4.3,5.4,67,0.00,,,0.00,WUHU216HW,2013-01-27 15:48:00,
2013-01-27 10:53:00,34.6,24.3,30.79,ENE,68,6.3,6.3,66,0.00,,,0.00,WUHU216HW,2013-01-27 15:53:00,
2013-01-27 10:58:00,34.6,24.3,30.79,NE,45,3.4,6.9,66,0.00,,,0.00,WUHU216HW,2013-01-27 15:58:00,
2013-01-27 11:03:00,34.9,23.9,30.79,ENE,68,4.3,6.9,64,0.00,,,0.00,WUHU216HW,2013-01-27 16:03:00,
2013-01-27 11:08:00,34.9,23.9,30.79,NE,45,3.6,5.4,64,0.00,,,0.00,WUHU216HW,2013-01-27 16:08:00,
2013-01-27 11:13:00,35.3,24.3,30.79,East,90,3.1,4.7,64,0.00,,,0.00,WUHU216HW,2013-01-27 16:13:00,
2013-01-27 11:18:00,35.6,25.7,30.78,ESE,113,3.8,4.7,67,0.00,,,0.00,WUHU216HW,2013-01-27 16:18:00,
2013-01-27 11:23:00,36.0,25.4,30.78,NNE,23,4.0,7.2,65,0.00,,,0.00,WUHU216HW,2013-01-27 16:23:00,
2013-01-27 11:28:00,36.4,25.8,30.78,NE,45,1.8,7.2,65,0.00,,,0.00,WUHU216HW,2013-01-27 16:28:00,
2013-01-27 11:33:00,36.5,24.8,30.78,NNE,23,5.4,6.0,62,0.00,,,0.00,WUHU216HW,2013-01-27 16:33:00,
2013-01-27 11:38:00,36.4,24.6,30.78,NNE,23,4.0,6.0,62,0.00,,,0.00,WUHU216HW,2013-01-27 16:38:00,
2013-01-27 11:43:00,36.5,25.1,30.78,SE,135,1.8,5.4,63,0.00,,,0.00,WUHU216HW,2013-01-27 16:43:00,
2013-01-27 11:48:00,36.9,25.1,30.78,NNE,23,5.6,5.8,62,0.00,,,0.00,WUHU216HW,2013-01-27 16:48:00,
2013-01-27 11:53:00,37.1,25.3,30.77,East,101,1.4,5.8,62,0.00,,,0.00,WUHU216HW,2013-01-27 16:53:00,
2013-01-27 11:58:00,37.6,25.4,30.77,NE,42,2.5,5.6,61,0.00,,,0.00,WUHU216HW,2013-01-27 16:58:00,
2013-01-27 12:03:00,37.6,25.7,30.77,ENE,68,6.0,6.3,62,0.00,,,0.00,WUHU216HW,2013-01-27 17:03:00,
2013-01-27 12:08:00,37.6,25.0,30.77,NNW,339,1.0,6.3,60,0.00,,,0.00,WUHU216HW,2013-01-27 17:08:00,
2013-01-27 12:13:00,38.0,26.5,30.77,West,270,1.6,6.0,63,0.00,,,0.00,WUHU216HW,2013-01-27 17:13:00,
2013-01-27 12:18:00,38.5,26.6,30.76,NE,45,2.7,5.6,62,0.00,,,0.00,WUHU216HW,2013-01-27 17:18:00,
2013-01-27 12:23:00,38.3,25.7,30.76,NNE,28,4.3,8.1,60,0.00,,,0.00,WUHU216HW,2013-01-27 17:23:00,
2013-01-27 12:28:00,38.3,26.4,30.76,West,270,2.9,8.1,62,0.00,,,0.00,WUHU216HW,2013-01-27 17:28:00,
2013-01-27 12:33:00,38.5,26.6,30.76,WNW,294,4.1,5.8,62,0.00,,,0.00,WUHU216HW,2013-01-27 17:33:00,
2013-01-27 12:38:00,38.9,26.9,30.75,North,0,2.2,5.8,62,0.00,,,0.00,WUHU216HW,2013-01-27 17:38:00,
2013-01-27 12:43:00,38.9,26.6,30.75,NW,309,4.1,6.0,61,0.00,,,0.00,WUHU216HW,2013-01-27 17:43:00,
2013-01-27 12:48:00,39.1,27.1,30.75,WSW,244,1.9,6.0,62,0.00,,,0.00,WUHU216HW,2013-01-27 17:48:00,
2013-01-27 12:53:00,39.2,27.2,30.74,WNW,293,5.4,5.4,62,0.00,,,0.00,WUHU216HW,2013-01-27 17:53:00,
2013-01-27 12:58:00,39.2,26.8,30.74,NW,315,1.6,5.4,61,0.00,,,0.00,WUHU216HW,2013-01-27 17:58:00,
2013-01-27 13:03:00,39.1,26.6,30.74,NW,315,6.3,6.9,61,0.00,,,0.00,WUHU216HW,2013-01-27 18:03:00,
2013-01-27 13:08:00,39.2,26.8,30.73,WNW,293,7.2,7.2,61,0.00,,,0.00,WUHU216HW,2013-01-27 18:08:00,
2013-01-27 13:13:00,39.2,27.2,30.73,NW,312,2.2,7.2,62,0.00,,,0.00,WUHU216HW,2013-01-27 18:13:00,
2013-01-27 13:18:00,39.2,26.8,30.73,NNW,342,3.9,7.2,61,0.00,,,0.00,WUHU216HW,2013-01-27 18:18:00,
2013-01-27 13:23:00,39.2,26.5,30.73,North,353,5.1,6.9,60,0.00,,,0.00,WUHU216HW,2013-01-27 18:23:00,
2013-01-27 13:28:00,38.7,25.6,30.72,NE,54,3.6,6.9,59,0.00,,,0.00,WUHU216HW,2013-01-27 18:28:00,
2013-01-27 13:33:00,38.7,26.0,30.72,SSW,205,4.1,5.8,60,0.00,,,0.00,WUHU216HW,2013-01-27 18:33:00,
2013-01-27 13:38:00,38.7,25.6,30.71,SW,232,5.0,8.1,59,0.00,,,0.00,WUHU216HW,2013-01-27 18:38:00,
2013-01-27 13:43:00,38.5,25.8,30.71,WSW,248,3.8,8.1,60,0.00,,,0.00,WUHU216HW,2013-01-27 18:43:00,
2013-01-27 13:48:00,38.7,26.4,30.71,SW,225,2.0,7.2,61,0.00,,,0.00,WUHU216HW,2013-01-27 18:48:00,
2013-01-27 13:53:00,39.1,26.3,30.70,SE,135,3.1,7.2,60,0.00,,,0.00,WUHU216HW,2013-01-27 18:53:00,
2013-01-27 13:58:00,39.2,26.8,30.70,SSE,154,2.3,4.3,61,0.00,,,0.00,WUHU216HW,2013-01-27 18:58:00,
2013-01-27 14:03:00,39.8,27.0,30.70,West,270,4.0,4.3,60,0.00,,,0.00,WUHU216HW,2013-01-27 19:03:00,
2013-01-27 14:08:00,39.8,26.6,30.70,North,0,1.1,4.3,59,0.00,,,0.00,WUHU216HW,2013-01-27 19:08:00,
2013-01-27 14:13:00,39.4,26.2,30.70,NNE,26,3.0,4.3,59,0.00,,,0.00,WUHU216HW,2013-01-27 19:13:00,
2013-01-27 14:18:00,39.2,26.0,30.70,West,265,3.7,4.5,59,0.00,,,0.00,WUHU216HW,2013-01-27 19:18:00,
2013-01-27 14:23:00,39.2,26.0,30.70,NNW,329,4.1,4.5,59,0.00,,,0.00,WUHU216HW,2013-01-27 19:23:00,
2013-01-27 14:28:00,39.2,26.5,30.70,WNW,293,4.7,5.4,60,0.00,,,0.00,WUHU216HW,2013-01-27 19:28:00,
2013-01-27 14:33:00,39.6,26.8,30.70,WNW,286,5.4,7.2,60,0.00,,,0.00,WUHU216HW,2013-01-27 19:33:00,
2013-01-27 14:38:00,39.6,26.8,30.70,WSW,248,2.9,7.2,60,0.00,,,0.00,WUHU216HW,2013-01-27 19:38:00,
2013-01-27 14:43:00,39.6,26.4,30.70,NW,312,2.4,5.8,59,0.00,,,0.00,WUHU216HW,2013-01-27 19:43:00,
2013-01-27 14:48:00,39.6,26.4,30.70,WSW,248,3.4,4.5,59,0.00,,,0.00,WUHU216HW,2013-01-27 19:48:00,
2013-01-27 14:53:00,39.8,27.0,30.70,SW,225,5.4,5.4,60,0.00,,,0.00,WUHU216HW,2013-01-27 19:53:00,
2013-01-27 14:58:00,39.6,26.4,30.70,WSW,248,2.2,5.4,59,0.00,,,0.00,WUHU216HW,2013-01-27 19:58:00,
2013-01-27 15:03:00,39.8,27.0,30.70,WNW,293,4.7,5.6,60,0.00,,,0.00,WUHU216HW,2013-01-27 20:03:00,
2013-01-27 15:08:00,39.8,27.0,30.70,West,270,1.5,5.6,60,0.00,,,0.00,WUHU216HW,2013-01-27 20:08:00,
2013-01-27 15:13:00,40.0,27.2,30.70,North,0,1.8,4.7,60,0.00,,,0.00,WUHU216HW,2013-01-27 20:13:00,
2013-01-27 15:18:00,40.0,26.7,30.70,SW,225,1.8,2.5,59,0.00,,,0.00,WUHU216HW,2013-01-27 20:18:00,
2013-01-27 15:23:00,40.0,26.7,30.70,SSW,203,2.5,3.4,59,0.00,,,0.00,WUHU216HW,2013-01-27 20:23:00,
2013-01-27 15:28:00,40.0,27.2,30.70,West,270,2.0,3.6,60,0.00,,,0.00,WUHU216HW,2013-01-27 20:28:00,
2013-01-27 15:33:00,40.0,26.3,30.70,WSW,248,3.8,3.8,58,0.00,,,0.00,WUHU216HW,2013-01-27 20:33:00,
2013-01-27 15:38:00,39.6,26.4,30.71,SW,225,4.0,4.0,59,0.00,,,0.00,WUHU216HW,2013-01-27 20:38:00,
2013-01-27 15:43:00,39.2,26.0,30.71,WSW,240,1.2,4.3,59,0.00,,,0.00,WUHU216HW,2013-01-27 20:43:00,
2013-01-27 15:48:00,39.2,26.0,30.71,SSW,203,3.6,4.7,59,0.00,,,0.00,WUHU216HW,2013-01-27 20:48:00,
2013-01-27 15:53:00,39.2,26.5,30.71,WSW,252,2.3,4.7,60,0.00,,,0.00,WUHU216HW,2013-01-27 20:53:00,
2013-01-27 15:58:00,39.2,26.0,30.70,SW,225,2.2,4.9,59,0.00,,,0.00,WUHU216HW,2013-01-27 20:58:00,
2013-01-27 16:03:00,38.9,25.8,30.70,WSW,244,1.6,4.9,59,0.00,,,0.00,WUHU216HW,2013-01-27 21:03:00,
2013-01-27 16:08:00,38.9,26.1,30.71,WSW,248,0.9,2.2,60,0.00,,,0.00,WUHU216HW,2013-01-27 21:08:00,
2013-01-27 16:13:00,38.9,26.1,30.70,NW,315,2.9,2.9,60,0.00,,,0.00,WUHU216HW,2013-01-27 21:13:00,
2013-01-27 16:18:00,39.1,26.3,30.71,West,270,1.1,2.9,60,0.00,,,0.00,WUHU216HW,2013-01-27 21:18:00,
2013-01-27 16:23:00,39.2,26.5,30.71,West,263,1.9,2.9,60,0.00,,,0.00,WUHU216HW,2013-01-27 21:23:00,
2013-01-27 16:28:00,39.2,26.5,30.71,WSW,248,1.3,2.9,60,0.00,,,0.00,WUHU216HW,2013-01-27 21:28:00,
2013-01-27 16:33:00,38.9,26.1,30.71,WSW,248,1.3,2.5,60,0.00,,,0.00,WUHU216HW,2013-01-27 21:33:00,
2013-01-27 16:38:00,38.7,26.0,30.71,WSW,248,1.1,1.8,60,0.00,,,0.00,WUHU216HW,2013-01-27 21:38:00,
2013-01-27 16:43:00,38.7,26.0,30.70,WSW,248,1.0,1.8,60,0.00,,,0.00,WUHU216HW,2013-01-27 21:43:00,
2013-01-27 16:48:00,38.7,26.0,30.70,SW,214,1.2,1.8,60,0.00,,,0.00,WUHU216HW,2013-01-27 21:48:00,
2013-01-27 16:53:00,38.7,26.0,30.70,West,270,0.7,1.8,60,0.00,,,0.00,WUHU216HW,2013-01-27 21:53:00,
2013-01-27 16:58:00,38.5,25.8,30.71,WSW,248,1.1,1.1,60,0.00,,,0.00,WUHU216HW,2013-01-27 21:58:00,
2013-01-27 17:03:00,38.5,25.8,30.71,SW,225,1.1,1.6,60,0.00,,,0.00,WUHU216HW,2013-01-27 22:03:00,
2013-01-27 17:08:00,38.5,25.8,30.71,SW,225,0.7,1.6,60,0.00,,,0.00,WUHU216HW,2013-01-27 22:08:00,
2013-01-27 17:13:00,38.5,26.2,30.71,SW,225,0.2,1.6,61,0.00,,,0.00,WUHU216HW,2013-01-27 22:13:00,
2013-01-27 17:18:00,38.5,26.2,30.71,SW,225,0.0,1.1,61,0.00,,,0.00,WUHU216HW,2013-01-27 22:18:00,
2013-01-27 17:23:00,38.3,25.7,30.71,SW,225,0.0,0.0,60,0.00,,,0.00,WUHU216HW,2013-01-27 22:23:00,
2013-01-27 17:28:00,38.3,26.0,30.71,SW,225,0.0,0.0,61,0.00,,,0.00,WUHU216HW,2013-01-27 22:28:00,
2013-01-27 17:33:00,38.2,25.8,30.71,SW,225,0.0,0.0,61,0.00,,,0.00,WUHU216HW,2013-01-27 22:33:00,
2013-01-27 17:38:00,38.0,25.8,30.71,SW,225,0.0,0.0,61,0.00,,,0.00,WUHU216HW,2013-01-27 22:38:00,
2013-01-27 17:43:00,37.8,25.6,30.72,SW,225,0.0,0.0,61,0.00,,,0.00,WUHU216HW,2013-01-27 22:43:00,
2013-01-27 17:48:00,37.8,25.6,30.71,NW,315,0.0,0.2,61,0.00,,,0.00,WUHU216HW,2013-01-27 22:48:00,
2013-01-27 17:53:00,37.6,25.4,30.71,SSE,158,1.0,1.1,61,0.00,,,0.00,WUHU216HW,2013-01-27 22:53:00,
2013-01-27 17:58:00,37.4,24.8,30.71,SSE,158,0.0,1.1,60,0.00,,,0.00,WUHU216HW,2013-01-27 22:58:00,
2013-01-27 18:03:00,37.3,24.7,30.72,SSE,158,0.0,0.7,60,0.00,,,0.00,WUHU216HW,2013-01-27 23:03:00,
2013-01-27 18:08:00,37.1,24.5,30.72,NW,315,0.5,0.7,60,0.00,,,0.00,WUHU216HW,2013-01-27 23:08:00,
2013-01-27 18:13:00,36.9,24.8,30.73,NW,315,0.0,0.7,61,0.00,,,0.00,WUHU216HW,2013-01-27 23:13:00,
2013-01-27 18:18:00,36.7,24.6,30.73,NW,315,1.1,1.1,61,0.00,,,0.00,WUHU216HW,2013-01-27 23:18:00,
2013-01-27 18:23:00,36.5,24.4,30.72,NW,326,0.8,1.1,61,0.00,,,0.00,WUHU216HW,2013-01-27 23:23:00,
2013-01-27 18:28:00,36.4,24.6,30.71,East,90,1.1,1.1,62,0.00,,,0.00,WUHU216HW,2013-01-27 23:28:00,
2013-01-27 18:33:00,36.0,24.3,30.71,East,90,0.3,1.1,62,0.00,,,0.00,WUHU216HW,2013-01-27 23:33:00,
2013-01-27 18:38:00,35.5,23.8,30.71,East,90,0.0,0.9,62,0.00,,,0.00,WUHU216HW,2013-01-27 23:38:00,
2013-01-27 18:43:00,34.9,23.2,30.71,East,90,0.0,0.7,62,0.00,,,0.00,WUHU216HW,2013-01-27 23:43:00,
2013-01-27 18:48:00,34.7,23.0,30.71,ESE,113,0.0,0.7,62,0.00,,,0.00,WUHU216HW,2013-01-27 23:48:00,
2013-01-27 18:53:00,34.7,23.4,30.71,SSW,203,0.0,0.0,63,0.00,,,0.00,WUHU216HW,2013-01-27 23:53:00,
2013-01-27 18:58:00,34.9,23.6,30.71,South,175,2.0,2.2,63,0.00,,,0.00,WUHU216HW,2013-01-27 23:58:00,
2013-01-27 19:03:00,34.9,23.6,30.71,SSE,158,1.8,2.2,63,0.00,,,0.00,WUHU216HW,2013-01-28 00:03:00,
2013-01-27 19:08:00,34.7,23.8,30.71,SSE,165,1.1,2.2,64,0.00,,,0.00,WUHU216HW,2013-01-28 00:08:00,
2013-01-27 19:13:00,34.7,23.4,30.71,South,180,0.1,2.2,63,0.00,,,0.00,WUHU216HW,2013-01-28 00:13:00,
2013-01-27 19:18:00,34.6,23.6,30.71,South,180,0.0,1.1,64,0.00,,,0.00,WUHU216HW,2013-01-28 00:18:00,
2013-01-27 19:23:00,34.4,23.4,30.71,South,180,0.0,0.0,64,0.00,,,0.00,WUHU216HW,2013-01-28 00:23:00,
2013-01-27 19:28:00,34.2,23.2,30.71,West,270,1.1,1.1,64,0.00,,,0.00,WUHU216HW,2013-01-28 00:28:00,
2013-01-27 19:33:00,34.0,23.0,30.71,West,270,1.1,1.8,64,0.00,,,0.00,WUHU216HW,2013-01-28 00:33:00,
2013-01-27 19:38:00,33.8,22.9,30.71,West,270,0.0,1.8,64,0.00,,,0.00,WUHU216HW,2013-01-28 00:38:00,
2013-01-27 19:43:00,33.7,23.0,30.71,West,270,0.0,0.7,65,0.00,,,0.00,WUHU216HW,2013-01-28 00:43:00,
2013-01-27 19:48:00,33.5,22.9,30.71,West,270,0.0,0.0,65,0.00,,,0.00,WUHU216HW,2013-01-28 00:48:00,
2013-01-27 19:53:00,33.3,22.8,30.71,West,270,0.0,0.0,65,0.00,,,0.00,WUHU216HW,2013-01-28 00:53:00,
2013-01-27 19:58:00,33.1,23.0,30.71,West,270,0.0,0.0,66,0.00,,,0.00,WUHU216HW,2013-01-28 00:58:00,
2013-01-27 20:03:00,33.1,23.0,30.70,South,180,0.9,0.9,66,0.00,,,0.00,WUHU216HW,2013-01-28 01:03:00,
2013-01-27 20:08:00,32.9,22.8,30.70,SSE,158,0.6,1.1,66,0.00,,,0.00,WUHU216HW,2013-01-28 01:08:00,
2013-01-27 20:13:00,32.8,23.0,30.70,South,180,0.0,1.1,67,0.00,,,0.00,WUHU216HW,2013-01-28 01:13:00,
2013-01-27 20:18:00,32.8,23.0,30.71,SSE,158,0.0,0.4,67,0.00,,,0.00,WUHU216HW,2013-01-28 01:18:00,
2013-01-27 20:23:00,32.4,22.7,30.71,SSE,158,0.0,0.4,67,0.00,,,0.00,WUHU216HW,2013-01-28 01:23:00,
2013-01-27 20:28:00,32.4,22.7,30.71,West,270,0.9,0.9,67,0.00,,,0.00,WUHU216HW,2013-01-28 01:28:00,
2013-01-27 20:33:00,32.2,22.5,30.71,West,270,0.0,0.9,67,0.00,,,0.00,WUHU216HW,2013-01-28 01:33:00,
2013-01-27 20:38:00,32.0,22.3,30.71,West,270,0.0,0.9,67,0.00,,,0.00,WUHU216HW,2013-01-28 01:38:00,
2013-01-27 20:43:00,32.0,22.3,30.70,West,270,0.0,0.0,67,0.00,,,0.00,WUHU216HW,2013-01-28 01:43:00,
2013-01-27 20:48:00,32.0,22.3,30.70,SE,135,0.2,0.2,67,0.00,,,0.00,WUHU216HW,2013-01-28 01:48:00,
2013-01-27 20:53:00,31.9,22.1,30.70,SE,135,0.0,0.2,67,0.00,,,0.00,WUHU216HW,2013-01-28 01:53:00,
2013-01-27 20:58:00,31.9,22.1,30.70,SSW,203,0.7,0.7,67,0.00,,,0.00,WUHU216HW,2013-01-28 01:58:00,
2013-01-27 21:03:00,31.7,22.3,30.70,SSW,203,0.0,0.7,68,0.00,,,0.00,WUHU216HW,2013-01-28 02:03:00,
2013-01-27 21:08:00,31.3,22.0,30.69,SE,135,0.0,0.4,68,0.00,,,0.00,WUHU216HW,2013-01-28 02:08:00,
2013-01-27 21:13:00,31.3,22.3,30.69,SE,135,0.0,0.2,69,0.00,,,0.00,WUHU216HW,2013-01-28 02:13:00,
2013-01-27 21:18:00,31.0,22.0,30.69,SSE,158,2.5,2.5,69,0.00,,,0.00,WUHU216HW,2013-01-28 02:18:00,
2013-01-27 21:23:00,31.0,22.0,30.69,South,180,1.8,2.5,69,0.00,,,0.00,WUHU216HW,2013-01-28 02:23:00,
2013-01-27 21:28:00,31.0,22.0,30.70,SSW,203,1.0,2.5,69,0.00,,,0.00,WUHU216HW,2013-01-28 02:28:00,
2013-01-27 21:33:00,31.0,22.3,30.69,West,270,0.1,1.8,70,0.00,,,0.00,WUHU216HW,2013-01-28 02:33:00,
2013-01-27 21:38:00,30.8,22.1,30.70,West,270,0.0,1.1,70,0.00,,,0.00,WUHU216HW,2013-01-28 02:38:00,
2013-01-27 21:43:00,30.6,22.0,30.70,West,270,0.4,0.7,70,0.00,,,0.00,WUHU216HW,2013-01-28 02:43:00,
2013-01-27 21:48:00,30.6,22.0,30.70,SE,135,2.7,2.7,70,0.00,,,0.00,WUHU216HW,2013-01-28 02:48:00,
2013-01-27 21:53:00,30.6,22.0,30.70,South,180,2.5,3.4,70,0.00,,,0.00,WUHU216HW,2013-01-28 02:53:00,
2013-01-27 21:58:00,30.6,22.0,30.70,South,180,2.5,3.4,70,0.00,,,0.00,WUHU216HW,2013-01-28 02:58:00,
2013-01-27 22:03:00,30.6,22.0,30.69,SSE,152,2.2,3.4,70,0.00,,,0.00,WUHU216HW,2013-01-28 03:03:00,
2013-01-27 22:08:00,30.6,22.3,30.69,SSE,155,1.9,3.4,71,0.00,,,0.00,WUHU216HW,2013-01-28 03:08:00,
2013-01-27 22:13:00,30.8,22.5,30.68,SSE,158,2.5,2.7,71,0.00,,,0.00,WUHU216HW,2013-01-28 03:13:00,
2013-01-27 22:18:00,30.8,22.5,30.68,South,180,2.7,4.0,71,0.00,,,0.00,WUHU216HW,2013-01-28 03:18:00,
2013-01-27 22:23:00,30.8,22.5,30.69,South,180,2.0,4.0,71,0.00,,,0.00,WUHU216HW,2013-01-28 03:23:00,
2013-01-27 22:28:00,30.8,22.5,30.70,SSW,208,1.7,3.6,71,0.00,,,0.00,WUHU216HW,2013-01-28 03:28:00,
2013-01-27 22:33:00,30.6,22.3,30.71,WNW,293,1.8,2.2,71,0.00,,,0.00,WUHU216HW,2013-01-28 03:33:00,
2013-01-27 22:38:00,30.6,22.3,30.71,WNW,293,0.7,1.8,71,0.00,,,0.00,WUHU216HW,2013-01-28 03:38:00,
2013-01-27 22:43:00,30.6,22.6,30.69,SE,135,1.8,1.8,72,0.00,,,0.00,WUHU216HW,2013-01-28 03:43:00,
2013-01-27 22:48:00,30.6,22.6,30.69,SE,135,2.2,2.5,72,0.00,,,0.00,WUHU216HW,2013-01-28 03:48:00,
2013-01-27 22:53:00,30.6,22.6,30.68,SE,135,2.1,2.5,72,0.00,,,0.00,WUHU216HW,2013-01-28 03:53:00,
2013-01-27 22:58:00,30.8,22.8,30.67,SSE,148,3.0,4.0,72,0.00,,,0.00,WUHU216HW,2013-01-28 03:58:00,
2013-01-27 23:03:00,31.0,23.0,30.67,SSE,162,2.4,4.0,72,0.00,,,0.00,WUHU216HW,2013-01-28 04:03:00,
2013-01-27 23:08:00,31.1,23.1,30.68,South,171,3.1,4.3,72,0.00,,,0.00,WUHU216HW,2013-01-28 04:08:00,
2013-01-27 23:13:00,31.1,23.1,30.69,SSW,203,1.1,4.3,72,0.00,,,0.00,WUHU216HW,2013-01-28 04:13:00,
2013-01-27 23:18:00,31.3,23.3,30.69,South,180,1.1,2.7,72,0.00,,,0.00,WUHU216HW,2013-01-28 04:18:00,
2013-01-27 23:23:00,31.3,23.3,30.69,SSE,158,1.3,2.5,72,0.00,,,0.00,WUHU216HW,2013-01-28 04:23:00,
2013-01-27 23:28:00,31.3,23.3,30.69,SSE,158,0.7,2.5,72,0.00,,,0.00,WUHU216HW,2013-01-28 04:28:00,
2013-01-27 23:33:00,31.5,23.5,30.69,South,181,1.0,1.8,72,0.00,,,0.00,WUHU216HW,2013-01-28 04:33:00,
2013-01-27 23:38:00,31.5,23.5,30.68,South,180,1.4,1.8,72,0.00,,,0.00,WUHU216HW,2013-01-28 04:38:00,
2013-01-27 23:43:00,31.5,23.5,30.67,SSE,158,2.5,2.5,72,0.00,,,0.00,WUHU216HW,2013-01-28 04:43:00,
2013-01-27 23:48:00,31.7,23.7,30.67,SSE,158,0.4,2.5,72,0.00,,,0.00,WUHU216HW,2013-01-28 04:48:00,
2013-01-27 23:53:00,31.7,23.7,30.67,ESE,113,0.1,2.5,72,0.00,,,0.00,WUHU216HW,2013-01-28 04:53:00,
2013-01-27 23:58:00,31.7,23.7,30.68,SE,141,0.3,1.1,72,0.00,,,0.00,WUHU216HW,2013-01-28 04:58:00,